METAR Data
IDs: Format: Raw Decoded Include TAF

Data at: 0244 UTC 25 Feb 2021

LFCR 250230Z AUTO 11009KT CAVOK 09/M01 Q1028 NOSIG